sensor_id;sensor_type;location;lat;lon;timestamp;P1;durP1;ratioP1;P2;durP2;ratioP2
4365;SDS011;2196;47.422;9.656;2023-06-24T00:00:10;7.10;;;6.40;;
4365;SDS011;2196;47.422;9.656;2023-06-24T00:02:38;8.20;;;7.50;;
4365;SDS011;2196;47.422;9.656;2023-06-24T00:05:08;8.20;;;7.47;;
4365;SDS011;2196;47.422;9.656;2023-06-24T00:07:35;8.77;;;7.90;;
4365;SDS011;2196;47.422;9.656;2023-06-24T00:10:09;8.60;;;7.93;;
4365;SDS011;2196;47.422;9.656;2023-06-24T00:12:37;8.10;;;7.43;;
4365;SDS011;2196;47.422;9.656;2023-06-24T00:15:06;8.80;;;8.10;;
4365;SDS011;2196;47.422;9.656;2023-06-24T00:17:34;8.60;;;8.00;;
4365;SDS011;2196;47.422;9.656;2023-06-24T00:20:01;7.23;;;6.63;;
4365;SDS011;2196;47.422;9.656;2023-06-24T00:22:32;8.80;;;8.00;;
4365;SDS011;2196;47.422;9.656;2023-06-24T00:24:59;9.37;;;8.47;;
4365;SDS011;2196;47.422;9.656;2023-06-24T00:27:27;9.80;;;7.57;;
4365;SDS011;2196;47.422;9.656;2023-06-24T00:29:54;9.40;;;8.60;;
4365;SDS011;2196;47.422;9.656;2023-06-24T00:32:24;8.10;;;7.40;;
4365;SDS011;2196;47.422;9.656;2023-06-24T00:34:51;8.60;;;7.93;;
4365;SDS011;2196;47.422;9.656;2023-06-24T00:37:18;9.97;;;7.60;;
4365;SDS011;2196;47.422;9.656;2023-06-24T00:39:45;15.53;;;9.50;;
4365;SDS011;2196;47.422;9.656;2023-06-24T00:42:12;9.57;;;8.87;;
4365;SDS011;2196;47.422;9.656;2023-06-24T00:44:39;8.53;;;7.73;;
4365;SDS011;2196;47.422;9.656;2023-06-24T00:47:06;9.03;;;8.17;;
4365;SDS011;2196;47.422;9.656;2023-06-24T00:49:36;10.57;;;8.77;;
4365;SDS011;2196;47.422;9.656;2023-06-24T00:52:03;9.90;;;9.10;;
4365;SDS011;2196;47.422;9.656;2023-06-24T00:54:31;9.13;;;8.33;;
4365;SDS011;2196;47.422;9.656;2023-06-24T00:56:58;10.53;;;9.70;;
4365;SDS011;2196;47.422;9.656;2023-06-24T00:59:26;9.10;;;8.30;;
4365;SDS011;2196;47.422;9.656;2023-06-24T01:01:57;11.50;;;10.60;;
4365;SDS011;2196;47.422;9.656;2023-06-24T01:04:26;9.13;;;8.23;;
4365;SDS011;2196;47.422;9.656;2023-06-24T01:06:55;10.10;;;9.30;;
4365;SDS011;2196;47.422;9.656;2023-06-24T01:09:23;9.60;;;8.80;;
4365;SDS011;2196;47.422;9.656;2023-06-24T01:11:50;10.47;;;9.50;;
4365;SDS011;2196;47.422;9.656;2023-06-24T01:14:17;9.60;;;8.47;;
4365;SDS011;2196;47.422;9.656;2023-06-24T01:16:49;10.97;;;9.87;;
4365;SDS011;2196;47.422;9.656;2023-06-24T01:19:37;10.20;;;9.40;;
4365;SDS011;2196;47.422;9.656;2023-06-24T01:22:29;9.70;;;8.90;;
4365;SDS011;2196;47.422;9.656;2023-06-24T01:25:32;9.77;;;8.87;;
4365;SDS011;2196;47.422;9.656;2023-06-24T01:28:14;10.00;;;9.20;;
4365;SDS011;2196;47.422;9.656;2023-06-24T01:31:06;9.77;;;8.87;;
4365;SDS011;2196;47.422;9.656;2023-06-24T01:33:56;10.47;;;9.47;;
4365;SDS011;2196;47.422;9.656;2023-06-24T01:36:31;11.57;;;9.67;;
4365;SDS011;2196;47.422;9.656;2023-06-24T01:39:01;9.70;;;8.77;;
4365;SDS011;2196;47.422;9.656;2023-06-24T01:41:31;9.77;;;8.97;;
4365;SDS011;2196;47.422;9.656;2023-06-24T01:44:02;10.73;;;9.87;;
4365;SDS011;2196;47.422;9.656;2023-06-24T01:46:32;9.57;;;8.77;;
4365;SDS011;2196;47.422;9.656;2023-06-24T01:48:59;11.07;;;8.50;;
4365;SDS011;2196;47.422;9.656;2023-06-24T01:51:28;8.60;;;7.97;;
4365;SDS011;2196;47.422;9.656;2023-06-24T01:54:00;9.87;;;8.97;;
4365;SDS011;2196;47.422;9.656;2023-06-24T01:56:29;8.90;;;8.07;;
4365;SDS011;2196;47.422;9.656;2023-06-24T01:58:59;7.77;;;7.17;;
4365;SDS011;2196;47.422;9.656;2023-06-24T02:01:29;9.17;;;8.27;;
4365;SDS011;2196;47.422;9.656;2023-06-24T02:03:59;9.30;;;8.40;;
4365;SDS011;2196;47.422;9.656;2023-06-24T02:06:28;8.90;;;8.10;;
4365;SDS011;2196;47.422;9.656;2023-06-24T02:08:56;9.13;;;8.43;;
4365;SDS011;2196;47.422;9.656;2023-06-24T02:11:24;8.30;;;7.60;;
4365;SDS011;2196;47.422;9.656;2023-06-24T02:13:54;9.00;;;8.30;;
4365;SDS011;2196;47.422;9.656;2023-06-24T02:16:21;7.40;;;6.90;;
4365;SDS011;2196;47.422;9.656;2023-06-24T02:18:52;9.10;;;8.27;;
4365;SDS011;2196;47.422;9.656;2023-06-24T02:21:20;9.77;;;8.73;;
4365;SDS011;2196;47.422;9.656;2023-06-24T02:23:49;9.03;;;8.40;;
4365;SDS011;2196;47.422;9.656;2023-06-24T02:26:17;8.70;;;7.93;;
4365;SDS011;2196;47.422;9.656;2023-06-24T02:28:44;8.77;;;8.07;;
4365;SDS011;2196;47.422;9.656;2023-06-24T02:31:12;8.10;;;7.47;;
4365;SDS011;2196;47.422;9.656;2023-06-24T02:33:40;7.80;;;7.10;;
4365;SDS011;2196;47.422;9.656;2023-06-24T02:36:09;9.27;;;8.37;;
4365;SDS011;2196;47.422;9.656;2023-06-24T02:38:36;9.97;;;8.97;;
4365;SDS011;2196;47.422;9.656;2023-06-24T02:41:03;8.30;;;7.67;;
4365;SDS011;2196;47.422;9.656;2023-06-24T02:43:30;8.80;;;7.97;;
4365;SDS011;2196;47.422;9.656;2023-06-24T02:45:57;9.20;;;8.03;;
4365;SDS011;2196;47.422;9.656;2023-06-24T02:48:25;9.17;;;8.47;;
4365;SDS011;2196;47.422;9.656;2023-06-24T02:50:54;8.33;;;7.60;;
4365;SDS011;2196;47.422;9.656;2023-06-24T02:53:24;7.77;;;7.17;;
4365;SDS011;2196;47.422;9.656;2023-06-24T02:55:52;8.37;;;7.77;;
4365;SDS011;2196;47.422;9.656;2023-06-24T02:58:21;8.07;;;7.37;;
4365;SDS011;2196;47.422;9.656;2023-06-24T03:00:56;8.93;;;8.10;;
4365;SDS011;2196;47.422;9.656;2023-06-24T03:03:25;9.07;;;8.17;;
4365;SDS011;2196;47.422;9.656;2023-06-24T03:05:53;9.33;;;8.53;;
4365;SDS011;2196;47.422;9.656;2023-06-24T03:08:22;9.30;;;8.37;;
4365;SDS011;2196;47.422;9.656;2023-06-24T03:10:52;7.57;;;6.97;;
4365;SDS011;2196;47.422;9.656;2023-06-24T03:13:22;8.10;;;7.33;;
4365;SDS011;2196;47.422;9.656;2023-06-24T03:15:49;9.77;;;8.77;;
4365;SDS011;2196;47.422;9.656;2023-06-24T03:18:16;8.77;;;8.07;;
4365;SDS011;2196;47.422;9.656;2023-06-24T03:20:43;8.80;;;8.13;;
4365;SDS011;2196;47.422;9.656;2023-06-24T03:23:10;8.67;;;7.87;;
4365;SDS011;2196;47.422;9.656;2023-06-24T03:25:39;9.93;;;9.13;;
4365;SDS011;2196;47.422;9.656;2023-06-24T03:28:06;10.90;;;8.50;;
4365;SDS011;2196;47.422;9.656;2023-06-24T03:30:33;9.33;;;8.53;;
4365;SDS011;2196;47.422;9.656;2023-06-24T03:33:00;9.07;;;8.13;;
4365;SDS011;2196;47.422;9.656;2023-06-24T03:35:27;8.50;;;7.83;;
4365;SDS011;2196;47.422;9.656;2023-06-24T03:37:54;7.90;;;7.30;;
4365;SDS011;2196;47.422;9.656;2023-06-24T03:40:21;7.67;;;7.07;;
4365;SDS011;2196;47.422;9.656;2023-06-24T03:42:50;8.47;;;7.67;;
4365;SDS011;2196;47.422;9.656;2023-06-24T03:45:17;8.37;;;7.60;;
4365;SDS011;2196;47.422;9.656;2023-06-24T03:47:44;8.30;;;7.70;;
4365;SDS011;2196;47.422;9.656;2023-06-24T03:50:10;7.83;;;7.13;;
4365;SDS011;2196;47.422;9.656;2023-06-24T03:52:37;8.83;;;7.67;;
4365;SDS011;2196;47.422;9.656;2023-06-24T03:55:05;13.20;;;7.50;;
4365;SDS011;2196;47.422;9.656;2023-06-24T03:57:32;7.63;;;7.00;;
4365;SDS011;2196;47.422;9.656;2023-06-24T04:00:00;7.57;;;7.03;;
4365;SDS011;2196;47.422;9.656;2023-06-24T04:02:31;8.27;;;7.53;;
4365;SDS011;2196;47.422;9.656;2023-06-24T04:04:58;6.73;;;6.03;;
4365;SDS011;2196;47.422;9.656;2023-06-24T04:07:25;7.40;;;6.87;;
4365;SDS011;2196;47.422;9.656;2023-06-24T04:09:54;8.37;;;7.70;;
4365;SDS011;2196;47.422;9.656;2023-06-24T04:12:23;6.87;;;6.27;;
4365;SDS011;2196;47.422;9.656;2023-06-24T04:14:50;6.90;;;6.50;;
4365;SDS011;2196;47.422;9.656;2023-06-24T04:17:18;7.63;;;7.03;;
4365;SDS011;2196;47.422;9.656;2023-06-24T04:19:45;7.43;;;6.77;;
4365;SDS011;2196;47.422;9.656;2023-06-24T04:22:12;8.17;;;6.83;;
4365;SDS011;2196;47.422;9.656;2023-06-24T04:24:39;8.17;;;7.57;;
4365;SDS011;2196;47.422;9.656;2023-06-24T04:27:07;12.83;;;6.83;;
4365;SDS011;2196;47.422;9.656;2023-06-24T04:29:34;7.17;;;6.23;;
4365;SDS011;2196;47.422;9.656;2023-06-24T04:32:02;7.60;;;7.03;;
4365;SDS011;2196;47.422;9.656;2023-06-24T04:34:30;7.47;;;6.77;;
4365;SDS011;2196;47.422;9.656;2023-06-24T04:36:58;7.00;;;6.27;;
4365;SDS011;2196;47.422;9.656;2023-06-24T04:39:25;9.23;;;7.50;;
4365;SDS011;2196;47.422;9.656;2023-06-24T04:41:52;7.30;;;6.80;;
4365;SDS011;2196;47.422;9.656;2023-06-24T04:44:19;7.57;;;7.07;;
4365;SDS011;2196;47.422;9.656;2023-06-24T04:46:46;11.33;;;7.63;;
4365;SDS011;2196;47.422;9.656;2023-06-24T04:49:13;7.80;;;7.10;;
4365;SDS011;2196;47.422;9.656;2023-06-24T04:51:41;8.17;;;7.50;;
4365;SDS011;2196;47.422;9.656;2023-06-24T04:54:08;8.00;;;7.40;;
4365;SDS011;2196;47.422;9.656;2023-06-24T04:56:37;8.17;;;7.47;;
4365;SDS011;2196;47.422;9.656;2023-06-24T04:59:04;8.27;;;7.60;;
4365;SDS011;2196;47.422;9.656;2023-06-24T05:01:31;8.77;;;8.03;;
4365;SDS011;2196;47.422;9.656;2023-06-24T05:03:58;11.93;;;8.50;;
4365;SDS011;2196;47.422;9.656;2023-06-24T05:06:25;8.23;;;7.63;;
4365;SDS011;2196;47.422;9.656;2023-06-24T05:08:53;8.60;;;7.83;;
4365;SDS011;2196;47.422;9.656;2023-06-24T05:11:20;7.83;;;7.17;;
4365;SDS011;2196;47.422;9.656;2023-06-24T05:13:47;9.23;;;8.13;;
4365;SDS011;2196;47.422;9.656;2023-06-24T05:16:14;6.87;;;6.37;;
4365;SDS011;2196;47.422;9.656;2023-06-24T05:18:43;8.43;;;7.83;;
4365;SDS011;2196;47.422;9.656;2023-06-24T05:21:11;7.80;;;7.10;;
4365;SDS011;2196;47.422;9.656;2023-06-24T05:23:38;8.90;;;8.00;;
4365;SDS011;2196;47.422;9.656;2023-06-24T05:26:06;8.90;;;8.20;;
4365;SDS011;2196;47.422;9.656;2023-06-24T05:28:33;9.33;;;7.67;;
4365;SDS011;2196;47.422;9.656;2023-06-24T05:31:00;7.83;;;7.23;;
4365;SDS011;2196;47.422;9.656;2023-06-24T05:33:27;8.77;;;8.07;;
4365;SDS011;2196;47.422;9.656;2023-06-24T05:35:54;8.23;;;7.63;;
4365;SDS011;2196;47.422;9.656;2023-06-24T05:38:21;7.30;;;6.70;;
4365;SDS011;2196;47.422;9.656;2023-06-24T05:40:48;7.07;;;6.47;;
4365;SDS011;2196;47.422;9.656;2023-06-24T05:43:16;7.77;;;7.00;;
4365;SDS011;2196;47.422;9.656;2023-06-24T05:45:43;6.87;;;6.37;;
4365;SDS011;2196;47.422;9.656;2023-06-24T05:48:10;7.43;;;6.93;;
4365;SDS011;2196;47.422;9.656;2023-06-24T05:50:37;8.33;;;7.63;;
4365;SDS011;2196;47.422;9.656;2023-06-24T05:53:04;6.57;;;6.17;;
4365;SDS011;2196;47.422;9.656;2023-06-24T05:55:31;7.13;;;6.53;;
4365;SDS011;2196;47.422;9.656;2023-06-24T05:57:58;6.37;;;5.87;;
4365;SDS011;2196;47.422;9.656;2023-06-24T06:00:26;7.20;;;6.63;;
4365;SDS011;2196;47.422;9.656;2023-06-24T06:02:53;6.53;;;5.93;;
4365;SDS011;2196;47.422;9.656;2023-06-24T06:05:20;6.13;;;5.57;;
4365;SDS011;2196;47.422;9.656;2023-06-24T06:07:47;7.23;;;6.53;;
4365;SDS011;2196;47.422;9.656;2023-06-24T06:10:14;7.23;;;6.73;;
4365;SDS011;2196;47.422;9.656;2023-06-24T06:12:42;6.43;;;5.93;;
4365;SDS011;2196;47.422;9.656;2023-06-24T06:15:10;6.87;;;6.17;;
4365;SDS011;2196;47.422;9.656;2023-06-24T06:17:38;6.90;;;6.40;;
4365;SDS011;2196;47.422;9.656;2023-06-24T06:20:06;5.93;;;5.30;;
4365;SDS011;2196;47.422;9.656;2023-06-24T06:22:33;7.50;;;6.83;;
4365;SDS011;2196;47.422;9.656;2023-06-24T06:25:03;9.00;;;7.30;;
4365;SDS011;2196;47.422;9.656;2023-06-24T06:27:31;7.40;;;6.93;;
4365;SDS011;2196;47.422;9.656;2023-06-24T06:29:58;8.07;;;6.87;;
4365;SDS011;2196;47.422;9.656;2023-06-24T06:32:26;6.63;;;6.13;;
4365;SDS011;2196;47.422;9.656;2023-06-24T06:34:54;7.00;;;6.50;;
4365;SDS011;2196;47.422;9.656;2023-06-24T06:37:21;7.33;;;6.83;;
4365;SDS011;2196;47.422;9.656;2023-06-24T06:39:48;7.60;;;6.90;;
4365;SDS011;2196;47.422;9.656;2023-06-24T06:42:15;7.77;;;7.03;;
4365;SDS011;2196;47.422;9.656;2023-06-24T06:44:42;7.67;;;6.97;;
4365;SDS011;2196;47.422;9.656;2023-06-24T06:47:10;8.00;;;7.37;;
4365;SDS011;2196;47.422;9.656;2023-06-24T06:49:37;8.10;;;7.40;;
4365;SDS011;2196;47.422;9.656;2023-06-24T06:52:06;7.50;;;6.87;;
4365;SDS011;2196;47.422;9.656;2023-06-24T06:54:33;6.63;;;6.13;;
4365;SDS011;2196;47.422;9.656;2023-06-24T06:57:00;7.63;;;6.07;;
4365;SDS011;2196;47.422;9.656;2023-06-24T06:59:28;7.63;;;6.90;;
4365;SDS011;2196;47.422;9.656;2023-06-24T07:01:56;7.33;;;6.73;;
4365;SDS011;2196;47.422;9.656;2023-06-24T07:04:23;8.37;;;7.57;;
4365;SDS011;2196;47.422;9.656;2023-06-24T07:06:50;7.60;;;7.00;;
4365;SDS011;2196;47.422;9.656;2023-06-24T07:09:19;8.77;;;7.97;;
4365;SDS011;2196;47.422;9.656;2023-06-24T07:11:46;9.53;;;7.87;;
4365;SDS011;2196;47.422;9.656;2023-06-24T07:14:13;8.37;;;7.63;;
4365;SDS011;2196;47.422;9.656;2023-06-24T07:16:40;8.40;;;7.67;;
4365;SDS011;2196;47.422;9.656;2023-06-24T07:19:07;8.40;;;7.90;;
4365;SDS011;2196;47.422;9.656;2023-06-24T07:21:34;8.20;;;7.60;;
4365;SDS011;2196;47.422;9.656;2023-06-24T07:24:01;8.97;;;8.23;;
4365;SDS011;2196;47.422;9.656;2023-06-24T07:26:29;8.33;;;7.73;;
4365;SDS011;2196;47.422;9.656;2023-06-24T07:28:56;9.03;;;8.40;;
4365;SDS011;2196;47.422;9.656;2023-06-24T07:31:24;9.03;;;8.33;;
4365;SDS011;2196;47.422;9.656;2023-06-24T07:33:51;10.40;;;9.37;;
4365;SDS011;2196;47.422;9.656;2023-06-24T07:36:18;8.90;;;8.13;;
4365;SDS011;2196;47.422;9.656;2023-06-24T07:38:45;9.37;;;8.57;;
4365;SDS011;2196;47.422;9.656;2023-06-24T07:41:12;8.57;;;7.90;;
4365;SDS011;2196;47.422;9.656;2023-06-24T07:43:40;8.23;;;7.63;;
4365;SDS011;2196;47.422;9.656;2023-06-24T07:46:07;8.70;;;7.97;;
4365;SDS011;2196;47.422;9.656;2023-06-24T07:48:34;7.70;;;7.10;;
4365;SDS011;2196;47.422;9.656;2023-06-24T07:51:01;8.00;;;7.20;;
4365;SDS011;2196;47.422;9.656;2023-06-24T07:53:28;8.13;;;7.53;;
4365;SDS011;2196;47.422;9.656;2023-06-24T07:55:54;7.27;;;6.67;;
4365;SDS011;2196;47.422;9.656;2023-06-24T07:58:21;8.07;;;7.47;;
4365;SDS011;2196;47.422;9.656;2023-06-24T08:00:50;7.97;;;7.43;;
4365;SDS011;2196;47.422;9.656;2023-06-24T08:03:17;7.57;;;7.07;;
4365;SDS011;2196;47.422;9.656;2023-06-24T08:05:44;8.30;;;7.70;;
4365;SDS011;2196;47.422;9.656;2023-06-24T08:08:11;7.40;;;6.77;;
4365;SDS011;2196;47.422;9.656;2023-06-24T08:10:37;7.70;;;7.00;;
4365;SDS011;2196;47.422;9.656;2023-06-24T08:13:04;6.43;;;6.03;;
4365;SDS011;2196;47.422;9.656;2023-06-24T08:15:31;6.27;;;5.83;;
4365;SDS011;2196;47.422;9.656;2023-06-24T08:18:00;6.03;;;5.63;;
4365;SDS011;2196;47.422;9.656;2023-06-24T08:20:26;7.60;;;7.10;;
4365;SDS011;2196;47.422;9.656;2023-06-24T08:22:53;6.77;;;6.20;;
4365;SDS011;2196;47.422;9.656;2023-06-24T08:25:20;7.30;;;6.80;;
4365;SDS011;2196;47.422;9.656;2023-06-24T08:27:47;7.27;;;6.60;;
4365;SDS011;2196;47.422;9.656;2023-06-24T08:30:14;6.20;;;5.80;;
4365;SDS011;2196;47.422;9.656;2023-06-24T08:32:41;7.47;;;7.03;;
4365;SDS011;2196;47.422;9.656;2023-06-24T08:35:09;6.60;;;6.23;;
4365;SDS011;2196;47.422;9.656;2023-06-24T08:37:36;7.22;;;6.80;;
4365;SDS011;2196;47.422;9.656;2023-06-24T08:40:04;6.95;;;6.45;;
4365;SDS011;2196;47.422;9.656;2023-06-24T08:42:32;5.90;;;5.57;;
4365;SDS011;2196;47.422;9.656;2023-06-24T08:44:59;7.13;;;6.55;;
4365;SDS011;2196;47.422;9.656;2023-06-24T08:47:26;7.68;;;7.18;;
4365;SDS011;2196;47.422;9.656;2023-06-24T08:49:59;6.28;;;5.88;;
4365;SDS011;2196;47.422;9.656;2023-06-24T08:52:31;6.72;;;6.32;;
4365;SDS011;2196;47.422;9.656;2023-06-24T08:55:01;7.70;;;7.18;;
4365;SDS011;2196;47.422;9.656;2023-06-24T08:57:30;9.10;;;7.15;;
4365;SDS011;2196;47.422;9.656;2023-06-24T08:59:57;6.40;;;6.00;;
4365;SDS011;2196;47.422;9.656;2023-06-24T09:02:25;6.55;;;6.05;;
4365;SDS011;2196;47.422;9.656;2023-06-24T09:04:53;8.68;;;6.85;;
4365;SDS011;2196;47.422;9.656;2023-06-24T09:07:27;6.22;;;5.93;;
4365;SDS011;2196;47.422;9.656;2023-06-24T09:09:56;6.68;;;6.15;;
4365;SDS011;2196;47.422;9.656;2023-06-24T09:12:25;6.28;;;5.82;;
4365;SDS011;2196;47.422;9.656;2023-06-24T09:14:55;5.13;;;4.75;;
4365;SDS011;2196;47.422;9.656;2023-06-24T09:17:22;5.35;;;5.05;;
4365;SDS011;2196;47.422;9.656;2023-06-24T09:19:49;5.00;;;4.75;;
4365;SDS011;2196;47.422;9.656;2023-06-24T09:22:16;4.93;;;4.72;;
4365;SDS011;2196;47.422;9.656;2023-06-24T09:24:44;5.53;;;4.97;;
4365;SDS011;2196;47.422;9.656;2023-06-24T09:27:13;5.95;;;5.60;;
4365;SDS011;2196;47.422;9.656;2023-06-24T09:29:41;4.30;;;4.00;;
4365;SDS011;2196;47.422;9.656;2023-06-24T09:32:09;4.55;;;4.30;;
4365;SDS011;2196;47.422;9.656;2023-06-24T09:34:37;4.30;;;4.10;;
4365;SDS011;2196;47.422;9.656;2023-06-24T09:37:04;4.85;;;4.35;;
4365;SDS011;2196;47.422;9.656;2023-06-24T09:39:35;3.72;;;3.60;;
4365;SDS011;2196;47.422;9.656;2023-06-24T09:42:03;2.88;;;2.78;;
4365;SDS011;2196;47.422;9.656;2023-06-24T09:44:33;2.70;;;2.60;;
4365;SDS011;2196;47.422;9.656;2023-06-24T09:47:00;3.13;;;3.03;;
4365;SDS011;2196;47.422;9.656;2023-06-24T09:49:28;2.67;;;2.58;;
4365;SDS011;2196;47.422;9.656;2023-06-24T09:51:57;3.03;;;2.92;;
4365;SDS011;2196;47.422;9.656;2023-06-24T09:54:26;3.55;;;3.35;;
4365;SDS011;2196;47.422;9.656;2023-06-24T09:56:54;3.60;;;3.50;;
4365;SDS011;2196;47.422;9.656;2023-06-24T09:59:25;3.22;;;3.03;;
4365;SDS011;2196;47.422;9.656;2023-06-24T10:01:55;2.88;;;2.78;;
4365;SDS011;2196;47.422;9.656;2023-06-24T10:04:23;2.75;;;2.65;;
4365;SDS011;2196;47.422;9.656;2023-06-24T10:06:53;3.00;;;2.90;;
4365;SDS011;2196;47.422;9.656;2023-06-24T10:09:21;2.67;;;2.63;;
4365;SDS011;2196;47.422;9.656;2023-06-24T10:11:48;3.35;;;3.25;;
4365;SDS011;2196;47.422;9.656;2023-06-24T10:14:15;3.67;;;3.50;;
4365;SDS011;2196;47.422;9.656;2023-06-24T10:16:43;3.40;;;3.13;;
4365;SDS011;2196;47.422;9.656;2023-06-24T10:19:16;3.22;;;3.13;;
4365;SDS011;2196;47.422;9.656;2023-06-24T10:21:49;3.22;;;3.03;;
4365;SDS011;2196;47.422;9.656;2023-06-24T10:24:29;2.45;;;2.35;;
4365;SDS011;2196;47.422;9.656;2023-06-24T10:27:01;2.83;;;2.63;;
4365;SDS011;2196;47.422;9.656;2023-06-24T10:29:33;2.97;;;2.80;;
4365;SDS011;2196;47.422;9.656;2023-06-24T10:32:02;2.70;;;2.60;;
4365;SDS011;2196;47.422;9.656;2023-06-24T10:34:32;2.60;;;2.40;;
4365;SDS011;2196;47.422;9.656;2023-06-24T10:37:10;2.88;;;2.75;;
4365;SDS011;2196;47.422;9.656;2023-06-24T10:39:39;2.67;;;2.58;;
4365;SDS011;2196;47.422;9.656;2023-06-24T10:42:37;2.20;;;2.20;;
4365;SDS011;2196;47.422;9.656;2023-06-24T10:45:13;2.80;;;1.80;;
4365;SDS011;2196;47.422;9.656;2023-06-24T10:47:43;1.83;;;1.83;;
4365;SDS011;2196;47.422;9.656;2023-06-24T10:50:13;2.38;;;2.28;;
4365;SDS011;2196;47.422;9.656;2023-06-24T10:52:41;2.38;;;2.35;;
4365;SDS011;2196;47.422;9.656;2023-06-24T10:55:09;2.97;;;2.78;;
4365;SDS011;2196;47.422;9.656;2023-06-24T10:57:36;3.00;;;2.90;;
4365;SDS011;2196;47.422;9.656;2023-06-24T11:00:04;2.60;;;2.50;;
4365;SDS011;2196;47.422;9.656;2023-06-24T11:02:32;2.50;;;2.50;;
4365;SDS011;2196;47.422;9.656;2023-06-24T11:05:00;2.92;;;2.83;;
4365;SDS011;2196;47.422;9.656;2023-06-24T11:07:30;2.88;;;2.78;;
4365;SDS011;2196;47.422;9.656;2023-06-24T11:10:01;2.72;;;2.63;;
4365;SDS011;2196;47.422;9.656;2023-06-24T11:12:31;2.88;;;2.78;;
4365;SDS011;2196;47.422;9.656;2023-06-24T11:15:01;2.63;;;2.42;;
4365;SDS011;2196;47.422;9.656;2023-06-24T11:17:29;2.97;;;2.78;;
4365;SDS011;2196;47.422;9.656;2023-06-24T11:19:57;2.60;;;2.53;;
4365;SDS011;2196;47.422;9.656;2023-06-24T11:22:25;3.45;;;2.72;;
4365;SDS011;2196;47.422;9.656;2023-06-24T11:24:56;2.53;;;2.45;;
4365;SDS011;2196;47.422;9.656;2023-06-24T11:27:24;3.03;;;2.83;;
4365;SDS011;2196;47.422;9.656;2023-06-24T11:29:52;2.72;;;2.58;;
4365;SDS011;2196;47.422;9.656;2023-06-24T11:32:20;3.70;;;3.38;;
4365;SDS011;2196;47.422;9.656;2023-06-24T11:34:47;3.38;;;3.17;;
4365;SDS011;2196;47.422;9.656;2023-06-24T11:37:15;3.35;;;3.15;;
4365;SDS011;2196;47.422;9.656;2023-06-24T11:39:43;2.55;;;2.50;;
4365;SDS011;2196;47.422;9.656;2023-06-24T11:42:13;2.93;;;2.83;;
4365;SDS011;2196;47.422;9.656;2023-06-24T11:44:43;3.35;;;3.20;;
4365;SDS011;2196;47.422;9.656;2023-06-24T11:47:10;2.73;;;2.63;;
4365;SDS011;2196;47.422;9.656;2023-06-24T11:49:50;3.20;;;3.03;;
4365;SDS011;2196;47.422;9.656;2023-06-24T11:52:18;3.80;;;3.30;;
4365;SDS011;2196;47.422;9.656;2023-06-24T11:54:45;3.30;;;3.10;;
4365;SDS011;2196;47.422;9.656;2023-06-24T11:57:17;2.72;;;2.53;;
4365;SDS011;2196;47.422;9.656;2023-06-24T11:59:44;2.85;;;2.65;;
4365;SDS011;2196;47.422;9.656;2023-06-24T12:02:13;2.75;;;2.65;;
4365;SDS011;2196;47.422;9.656;2023-06-24T12:04:43;2.55;;;2.45;;
4365;SDS011;2196;47.422;9.656;2023-06-24T12:07:11;3.78;;;2.85;;
4365;SDS011;2196;47.422;9.656;2023-06-24T12:09:38;2.67;;;2.47;;
4365;SDS011;2196;47.422;9.656;2023-06-24T12:12:05;2.70;;;2.50;;
4365;SDS011;2196;47.422;9.656;2023-06-24T12:14:34;2.20;;;2.20;;
4365;SDS011;2196;47.422;9.656;2023-06-24T12:17:01;2.67;;;2.58;;
4365;SDS011;2196;47.422;9.656;2023-06-24T12:19:28;2.65;;;2.55;;
4365;SDS011;2196;47.422;9.656;2023-06-24T12:21:55;2.42;;;2.33;;
4365;SDS011;2196;47.422;9.656;2023-06-24T12:24:22;2.10;;;2.00;;
4365;SDS011;2196;47.422;9.656;2023-06-24T12:26:49;2.78;;;2.67;;
4365;SDS011;2196;47.422;9.656;2023-06-24T12:29:16;3.53;;;3.20;;
4365;SDS011;2196;47.422;9.656;2023-06-24T12:31:45;3.10;;;2.70;;
4365;SDS011;2196;47.422;9.656;2023-06-24T12:34:12;1.77;;;1.67;;
4365;SDS011;2196;47.422;9.656;2023-06-24T12:36:39;2.40;;;2.20;;
4365;SDS011;2196;47.422;9.656;2023-06-24T12:39:06;3.20;;;3.03;;
4365;SDS011;2196;47.422;9.656;2023-06-24T12:41:33;2.43;;;2.33;;
4365;SDS011;2196;47.422;9.656;2023-06-24T12:44:00;2.80;;;2.50;;
4365;SDS011;2196;47.422;9.656;2023-06-24T12:46:27;2.20;;;2.20;;
4365;SDS011;2196;47.422;9.656;2023-06-24T12:48:55;3.07;;;2.87;;
4365;SDS011;2196;47.422;9.656;2023-06-24T12:51:22;3.00;;;2.90;;
4365;SDS011;2196;47.422;9.656;2023-06-24T12:53:49;2.47;;;2.37;;
4365;SDS011;2196;47.422;9.656;2023-06-24T12:56:16;2.35;;;2.22;;
4365;SDS011;2196;47.422;9.656;2023-06-24T12:58:43;3.00;;;2.90;;
4365;SDS011;2196;47.422;9.656;2023-06-24T13:01:10;3.03;;;2.92;;
4365;SDS011;2196;47.422;9.656;2023-06-24T13:03:37;3.17;;;3.00;;
4365;SDS011;2196;47.422;9.656;2023-06-24T13:06:05;2.75;;;2.65;;
4365;SDS011;2196;47.422;9.656;2023-06-24T13:08:32;3.03;;;2.83;;
4365;SDS011;2196;47.422;9.656;2023-06-24T13:10:59;2.60;;;2.50;;
4365;SDS011;2196;47.422;9.656;2023-06-24T13:13:26;4.33;;;2.77;;
4365;SDS011;2196;47.422;9.656;2023-06-24T13:15:53;2.47;;;2.37;;
4365;SDS011;2196;47.422;9.656;2023-06-24T13:18:20;2.60;;;2.50;;
4365;SDS011;2196;47.422;9.656;2023-06-24T13:20:47;3.30;;;3.10;;
4365;SDS011;2196;47.422;9.656;2023-06-24T13:23:16;3.00;;;2.20;;
4365;SDS011;2196;47.422;9.656;2023-06-24T13:25:43;2.40;;;2.30;;
4365;SDS011;2196;47.422;9.656;2023-06-24T13:28:10;3.22;;;3.03;;
4365;SDS011;2196;47.422;9.656;2023-06-24T13:30:37;2.80;;;2.60;;
4365;SDS011;2196;47.422;9.656;2023-06-24T13:33:04;2.47;;;2.37;;
4365;SDS011;2196;47.422;9.656;2023-06-24T13:35:31;3.40;;;3.20;;
4365;SDS011;2196;47.422;9.656;2023-06-24T13:37:57;2.35;;;2.25;;
4365;SDS011;2196;47.422;9.656;2023-06-24T13:40:26;2.57;;;2.47;;
4365;SDS011;2196;47.422;9.656;2023-06-24T13:42:53;2.83;;;2.63;;
4365;SDS011;2196;47.422;9.656;2023-06-24T13:45:20;2.50;;;2.40;;
4365;SDS011;2196;47.422;9.656;2023-06-24T13:47:46;2.93;;;2.73;;
4365;SDS011;2196;47.422;9.656;2023-06-24T13:50:13;2.23;;;2.13;;
4365;SDS011;2196;47.422;9.656;2023-06-24T13:52:41;2.80;;;2.70;;
4365;SDS011;2196;47.422;9.656;2023-06-24T13:55:08;3.20;;;3.03;;
4365;SDS011;2196;47.422;9.656;2023-06-24T13:57:36;2.73;;;2.63;;
4365;SDS011;2196;47.422;9.656;2023-06-24T14:00:03;2.63;;;2.47;;
4365;SDS011;2196;47.422;9.656;2023-06-24T14:02:31;3.93;;;2.67;;
4365;SDS011;2196;47.422;9.656;2023-06-24T14:04:59;5.77;;;3.50;;
4365;SDS011;2196;47.422;9.656;2023-06-24T14:07:26;2.77;;;2.67;;
4365;SDS011;2196;47.422;9.656;2023-06-24T14:09:52;4.57;;;2.80;;
4365;SDS011;2196;47.422;9.656;2023-06-24T14:12:19;3.27;;;2.83;;
4365;SDS011;2196;47.422;9.656;2023-06-24T14:14:48;2.90;;;2.77;;
4365;SDS011;2196;47.422;9.656;2023-06-24T14:17:15;2.90;;;2.70;;
4365;SDS011;2196;47.422;9.656;2023-06-24T14:19:42;2.30;;;2.10;;
4365;SDS011;2196;47.422;9.656;2023-06-24T14:22:09;2.63;;;2.53;;
4365;SDS011;2196;47.422;9.656;2023-06-24T14:24:36;3.63;;;3.07;;
4365;SDS011;2196;47.422;9.656;2023-06-24T14:27:04;2.30;;;2.20;;
4365;SDS011;2196;47.422;9.656;2023-06-24T14:29:32;3.10;;;2.27;;
4365;SDS011;2196;47.422;9.656;2023-06-24T14:32:00;2.70;;;2.60;;
4365;SDS011;2196;47.422;9.656;2023-06-24T14:34:27;2.65;;;2.45;;
4365;SDS011;2196;47.422;9.656;2023-06-24T14:36:54;3.17;;;2.70;;
4365;SDS011;2196;47.422;9.656;2023-06-24T14:39:21;2.77;;;2.67;;
4365;SDS011;2196;47.422;9.656;2023-06-24T14:41:48;3.03;;;2.83;;
4365;SDS011;2196;47.422;9.656;2023-06-24T14:44:15;3.42;;;3.05;;
4365;SDS011;2196;47.422;9.656;2023-06-24T14:46:42;3.03;;;2.47;;
4365;SDS011;2196;47.422;9.656;2023-06-24T14:49:10;3.15;;;2.95;;
4365;SDS011;2196;47.422;9.656;2023-06-24T14:51:37;3.10;;;2.90;;
4365;SDS011;2196;47.422;9.656;2023-06-24T14:54:04;3.17;;;3.08;;
4365;SDS011;2196;47.422;9.656;2023-06-24T14:56:32;3.20;;;3.10;;
4365;SDS011;2196;47.422;9.656;2023-06-24T14:58:59;3.97;;;3.78;;
4365;SDS011;2196;47.422;9.656;2023-06-24T15:01:25;3.28;;;3.05;;
4365;SDS011;2196;47.422;9.656;2023-06-24T15:03:52;3.07;;;2.97;;
4365;SDS011;2196;47.422;9.656;2023-06-24T15:06:21;3.17;;;2.97;;
4365;SDS011;2196;47.422;9.656;2023-06-24T15:08:48;2.95;;;2.75;;
4365;SDS011;2196;47.422;9.656;2023-06-24T15:11:15;3.13;;;2.92;;
4365;SDS011;2196;47.422;9.656;2023-06-24T15:13:42;3.13;;;3.03;;
4365;SDS011;2196;47.422;9.656;2023-06-24T15:16:09;2.83;;;2.72;;
4365;SDS011;2196;47.422;9.656;2023-06-24T15:18:43;3.13;;;3.00;;
4365;SDS011;2196;47.422;9.656;2023-06-24T15:21:11;3.30;;;2.97;;